Time;durP1;ratioP1;P1;durP2;ratioP2;P2;SDS_P1;SDS_P2;PMS_P1;PMS_P2;Temp;Humidity;BMP_temperature;BMP_pressure;BME280_temperature;BME280_humidity;BME280_pressure;Samples;Min_cycle;Max_cycle;Signal;HPM_P1;HPM_P2
2021/05/01 00:01:42;;;;;;;;;;;;;;;;;;4975053;28;20024;-58
2021/05/01 00:04:08;;;;;;;;;;;;;;;;;;4974867;28;20693;-59
2021/05/01 00:06:33;;;;;;;;;;;;;;;;;;4973885;28;20289;-58
2021/05/01 00:08:58;;;;;;;;;;;;;;;;;;4974722;28;20263;-59
2021/05/01 00:11:25;;;;;;;;;;;;;;;;;;4973735;28;20004;-58
2021/05/01 00:13:55;;;;;;;;;;;;;;;;;;4974886;28;19910;-58
2021/05/01 00:16:20;;;;;;;;;;;;;;;;;;4975071;28;20388;-58
2021/05/01 00:18:46;;;;;;;;;;;;;;;;;;4975976;28;19918;-58
2021/05/01 00:21:11;;;;;;;;;;;;;;;;;;4957401;28;19918;-60
2021/05/01 00:23:36;;;;;;;;;;;;;;;;;;4957489;28;19957;-60
2021/05/01 00:26:01;;;;;;;;;;;;;;;;;;4973463;28;20389;-58
2021/05/01 00:28:27;;;;;;;;;;;;;;;;;;4957656;28;19913;-59
2021/05/01 00:30:52;;;;;;;;;;;;;;;;;;4974689;28;19910;-59
2021/05/01 00:33:17;;;;;;;;;;;;;;;;;;4974402;28;20005;-58
2021/05/01 00:35:43;;;;;;;;;;;;;;;;;;4973351;28;20056;-59
2021/05/01 00:38:08;;;;;;;;;;;;;;;;;;4972127;28;20366;-59
2021/05/01 00:40:33;;;;;;;;;;;;;;;;;;4974450;28;20000;-58
2021/05/01 00:42:59;;;;;;;;;;;;;;;;;;4972915;28;19996;-58
2021/05/01 00:45:24;;;;;;;;;;;;;;;;;;4974510;28;19942;-59
2021/05/01 00:47:49;;;;;;;;;;;;;;;;;;4974359;28;19918;-58
2021/05/01 00:50:14;;;;;;;;;;;;;;;;;;4972782;28;19948;-59
2021/05/01 00:52:40;;;;;;;;;;;;;;;;;;4972632;28;19916;-58
2021/05/01 00:55:05;;;;;;;;;;;;;;;;;;4973829;28;19914;-59
2021/05/01 00:57:30;;;;;;;;;;;;;;;;;;4974032;28;20066;-59
2021/05/01 00:59:55;;;;;;;;;;;;;;;;;;4973920;28;19906;-58
2021/05/01 01:02:22;;;;;;;;;;;;;;;;;;4972918;28;19910;-58
2021/05/01 01:04:47;;;;;;;;;;;;;;;;;;4972847;28;20290;-59
2021/05/01 01:07:12;;;;;;;;;;;;;;;;;;4956277;28;19917;-59
2021/05/01 01:09:37;;;;;;;;;;;;;;;;;;4956920;28;20299;-59
2021/05/01 01:12:03;;;;;;;;;;;;;;;;;;4956041;28;20024;-59
2021/05/01 01:14:28;;;;;;;;;;;;;;;;;;4973830;28;19917;-59
2021/05/01 01:16:53;;;;;;;;;;;;;;;;;;4972610;28;19921;-59
2021/05/01 01:19:18;;;;;;;;;;;;;;;;;;4973407;28;19910;-60
2021/05/01 01:21:44;;;;;;;;;;;;;;;;;;4973877;28;19941;-59
2021/05/01 01:24:09;;;;;;;;;;;;;;;;;;4972014;28;19961;-60
2021/05/01 01:26:34;;;;;;;;;;;;;;;;;;4973636;28;19914;-59
2021/05/01 01:28:59;;;;;;;;;;;;;;;;;;4972268;28;19917;-59
2021/05/01 01:31:24;;;;;;;;;;;;;;;;;;4973986;28;20357;-58
2021/05/01 01:33:50;;;;;;;;;;;;;;;;;;4972342;28;20440;-58
2021/05/01 01:36:15;;;;;;;;;;;;;;;;;;4973174;28;19921;-58
2021/05/01 01:38:40;;;;;;;;;;;;;;;;;;4973687;28;20365;-59
2021/05/01 01:41:05;;;;;;;;;;;;;;;;;;4972053;28;19956;-58
2021/05/01 01:43:31;;;;;;;;;;;;;;;;;;4973774;28;19953;-59
2021/05/01 01:45:56;;;;;;;;;;;;;;;;;;4973866;28;20293;-59
2021/05/01 01:48:21;;;;;;;;;;;;;;;;;;4972100;28;20286;-59
2021/05/01 01:50:46;;;;;;;;;;;;;;;;;;4975055;28;20263;-58
2021/05/01 01:53:11;;;;;;;;;;;;;;;;;;4975699;28;20325;-59
2021/05/01 01:55:37;;;;;;;;;;;;;;;;;;4977466;28;19910;-58
2021/05/01 01:58:02;;;;;;;;;;;;;;;;;;4977183;28;20317;-58
2021/05/01 02:00:27;;;;;;;;;;;;;;;;;;4976470;28;20337;-58
2021/05/01 02:02:52;;;;;;;;;;;;;;;;;;4976139;28;20310;-59
2021/05/01 02:05:18;;;;;;;;;;;;;;;;;;4975808;28;19916;-61
2021/05/01 02:07:43;;;;;;;;;;;;;;;;;;4976018;28;19910;-58
2021/05/01 02:10:08;;;;;;;;;;;;;;;;;;4976989;28;20247;-58
2021/05/01 02:12:37;;;;;;;;;;;;;;;;;;4975964;28;20333;-60
2021/05/01 02:15:02;;;;;;;;;;;;;;;;;;4976185;28;19914;-59
2021/05/01 02:17:27;;;;;;;;;;;;;;;;;;4976955;28;19929;-59
2021/05/01 02:19:53;;;;;;;;;;;;;;;;;;4977277;28;19918;-59
2021/05/01 02:22:18;;;;;;;;;;;;;;;;;;4975307;28;19945;-58
2021/05/01 02:24:43;;;;;;;;;;;;;;;;;;4976886;28;20370;-58
2021/05/01 02:27:09;;;;;;;;;;;;;;;;;;4976552;28;20366;-58
2021/05/01 02:29:34;;;;;;;;;;;;;;;;;;4959895;28;19910;-59
2021/05/01 02:31:59;;;;;;;;;;;;;;;;;;4975719;28;19965;-58
2021/05/01 02:34:24;;;;;;;;;;;;;;;;;;4976491;28;19910;-58
2021/05/01 02:36:50;;;;;;;;;;;;;;;;;;4975399;28;19972;-59
2021/05/01 02:39:15;;;;;;;;;;;;;;;;;;4975005;28;20347;-58
2021/05/01 02:41:40;;;;;;;;;;;;;;;;;;4975290;28;20226;-59
2021/05/01 02:44:05;;;;;;;;;;;;;;;;;;4976421;28;19942;-58
2021/05/01 02:46:31;;;;;;;;;;;;;;;;;;4976332;28;19914;-58
2021/05/01 02:48:56;;;;;;;;;;;;;;;;;;4975328;28;19917;-58
2021/05/01 02:51:21;;;;;;;;;;;;;;;;;;4974955;28;20311;-58
2021/05/01 02:53:46;;;;;;;;;;;;;;;;;;4976332;28;20428;-58
2021/05/01 02:56:11;;;;;;;;;;;;;;;;;;4975879;28;20123;-59
2021/05/01 02:58:37;;;;;;;;;;;;;;;;;;4976797;28;20000;-59
2021/05/01 03:01:02;;;;;;;;;;;;;;;;;;4974898;28;19952;-59
2021/05/01 03:03:27;;;;;;;;;;;;;;;;;;4975832;28;19910;-59
2021/05/01 03:05:52;;;;;;;;;;;;;;;;;;4976079;28;19952;-59
2021/05/01 03:08:18;;;;;;;;;;;;;;;;;;4975791;28;19910;-58
2021/05/01 03:10:43;;;;;;;;;;;;;;;;;;4975983;28;20310;-58
2021/05/01 03:13:08;;;;;;;;;;;;;;;;;;4975936;28;19910;-59
2021/05/01 03:15:33;;;;;;;;;;;;;;;;;;4975846;28;20016;-58
2021/05/01 03:17:59;;;;;;;;;;;;;;;;;;4974712;28;19914;-58
2021/05/01 03:20:24;;;;;;;;;;;;;;;;;;4975471;28;19917;-59
2021/05/01 03:22:49;;;;;;;;;;;;;;;;;;4974801;28;19921;-58
2021/05/01 03:25:14;;;;;;;;;;;;;;;;;;4974292;28;19957;-59
2021/05/01 03:27:40;;;;;;;;;;;;;;;;;;4975793;28;19917;-59
2021/05/01 03:30:05;;;;;;;;;;;;;;;;;;4974808;28;19910;-58
2021/05/01 03:32:30;;;;;;;;;;;;;;;;;;4975320;28;20021;-58
2021/05/01 03:34:55;;;;;;;;;;;;;;;;;;4975567;28;19917;-58
2021/05/01 03:37:21;;;;;;;;;;;;;;;;;;4974001;28;20013;-59
2021/05/01 03:39:46;;;;;;;;;;;;;;;;;;4974337;28;19914;-58
2021/05/01 03:42:11;;;;;;;;;;;;;;;;;;4975487;28;19913;-59
2021/05/01 03:44:36;;;;;;;;;;;;;;;;;;4974121;28;19913;-58
2021/05/01 03:47:02;;;;;;;;;;;;;;;;;;4974270;28;19910;-58
2021/05/01 03:49:27;;;;;;;;;;;;;;;;;;4975144;28;20286;-58
2021/05/01 03:51:52;;;;;;;;;;;;;;;;;;4975663;28;20298;-59
2021/05/01 03:54:17;;;;;;;;;;;;;;;;;;4975063;28;19910;-59
2021/05/01 03:56:43;;;;;;;;;;;;;;;;;;4974808;28;20070;-58
2021/05/01 03:59:08;;;;;;;;;;;;;;;;;;4973788;28;19921;-58
2021/05/01 04:01:33;;;;;;;;;;;;;;;;;;4975116;28;20106;-59
2021/05/01 04:03:58;;;;;;;;;;;;;;;;;;4958145;28;19906;-59
2021/05/01 04:06:24;;;;;;;;;;;;;;;;;;4973430;28;19910;-59
2021/05/01 04:08:49;;;;;;;;;;;;;;;;;;4973731;28;19910;-59
2021/05/01 04:11:14;;;;;;;;;;;;;;;;;;4973594;28;19981;-60
2021/05/01 04:13:46;;;;;;;;;;;;;;;;;;4974018;28;19960;-58
2021/05/01 04:16:11;;;;;;;;;;;;;;;;;;4975057;28;19961;-58
2021/05/01 04:18:36;;;;;;;;;;;;;;;;;;4974603;28;19918;-58
2021/05/01 04:21:01;;;;;;;;;;;;;;;;;;4975043;28;20315;-58
2021/05/01 04:23:27;;;;;;;;;;;;;;;;;;4973395;28;19937;-59
2021/05/01 04:25:52;;;;;;;;;;;;;;;;;;4974808;28;19917;-59
2021/05/01 04:28:17;;;;;;;;;;;;;;;;;;4974723;28;20013;-58
2021/05/01 04:30:42;;;;;;;;;;;;;;;;;;4974823;28;19906;-58
2021/05/01 04:33:08;;;;;;;;;;;;;;;;;;4974651;28;19918;-59
2021/05/01 04:35:33;;;;;;;;;;;;;;;;;;4974336;28;20384;-59
2021/05/01 04:37:58;;;;;;;;;;;;;;;;;;4974574;28;20298;-59
2021/05/01 04:40:23;;;;;;;;;;;;;;;;;;4974106;28;19910;-60
2021/05/01 04:42:51;;;;;;;;;;;;;;;;;;4974874;28;19917;-59
2021/05/01 04:45:16;;;;;;;;;;;;;;;;;;4973227;28;19940;-58
2021/05/01 04:47:41;;;;;;;;;;;;;;;;;;4974643;28;20009;-58
2021/05/01 04:50:06;;;;;;;;;;;;;;;;;;4973198;28;20008;-59
2021/05/01 04:52:32;;;;;;;;;;;;;;;;;;4956541;28;19913;-58
2021/05/01 04:55:00;;;;;;;;;;;;;;;;;;4974088;28;19910;-59
2021/05/01 04:57:25;;;;;;;;;;;;;;;;;;4972750;28;20389;-59
2021/05/01 04:59:50;;;;;;;;;;;;;;;;;;4973140;28;19914;-58
2021/05/01 05:02:16;;;;;;;;;;;;;;;;;;4972942;28;19910;-58
2021/05/01 05:04:41;;;;;;;;;;;;;;;;;;4973801;28;19910;-58
2021/05/01 05:07:06;;;;;;;;;;;;;;;;;;4973007;28;20493;-58
2021/05/01 05:09:31;;;;;;;;;;;;;;;;;;4973328;28;19906;-58
2021/05/01 05:11:57;;;;;;;;;;;;;;;;;;4973080;28;19910;-58
2021/05/01 05:14:22;;;;;;;;;;;;;;;;;;4972359;28;19917;-59
2021/05/01 05:16:47;;;;;;;;;;;;;;;;;;4973924;28;20016;-58
2021/05/01 05:19:12;;;;;;;;;;;;;;;;;;4972880;28;19921;-59
2021/05/01 05:21:37;;;;;;;;;;;;;;;;;;4972215;28;19910;-59
2021/05/01 05:24:03;;;;;;;;;;;;;;;;;;4972520;28;19910;-58
2021/05/01 05:26:28;;;;;;;;;;;;;;;;;;4970377;28;20435;-58
2021/05/01 05:28:53;;;;;;;;;;;;;;;;;;4971932;28;20445;-59
2021/05/01 05:31:18;;;;;;;;;;;;;;;;;;4972142;28;19933;-58
2021/05/01 05:33:44;;;;;;;;;;;;;;;;;;4951593;28;19941;-60
2021/05/01 05:36:09;;;;;;;;;;;;;;;;;;4970828;28;20293;-59
2021/05/01 05:38:34;;;;;;;;;;;;;;;;;;4971635;28;20294;-59
2021/05/01 05:40:59;;;;;;;;;;;;;;;;;;4972722;28;19910;-58
2021/05/01 05:43:27;;;;;;;;;;;;;;;;;;4971968;28;19910;-58
2021/05/01 05:45:52;;;;;;;;;;;;;;;;;;4973458;28;19984;-59
2021/05/01 05:48:18;;;;;;;;;;;;;;;;;;4973858;28;20235;-58
2021/05/01 05:50:43;;;;;;;;;;;;;;;;;;4973023;28;19973;-58
2021/05/01 05:53:08;;;;;;;;;;;;;;;;;;4971994;28;20025;-58
2021/05/01 05:55:34;;;;;;;;;;;;;;;;;;4973471;28;19914;-59
2021/05/01 05:57:59;;;;;;;;;;;;;;;;;;4972349;28;19925;-59
2021/05/01 06:00:24;;;;;;;;;;;;;;;;;;4972153;28;19910;-59
2021/05/01 06:02:49;;;;;;;;;;;;;;;;;;4971886;28;19910;-58
2021/05/01 06:05:15;;;;;;;;;;;;;;;;;;4971877;28;19945;-59
2021/05/01 06:07:40;;;;;;;;;;;;;;;;;;4971503;28;20270;-59
2021/05/01 06:10:05;;;;;;;;;;;;;;;;;;4971922;28;19938;-59
2021/05/01 06:12:31;;;;;;;;;;;;;;;;;;4971899;28;19914;-58
2021/05/01 06:14:56;;;;;;;;;;;;;;;;;;4973149;28;19952;-58
2021/05/01 06:17:21;;;;;;;;;;;;;;;;;;4973210;28;19921;-58
2021/05/01 06:19:47;;;;;;;;;;;;;;;;;;4972712;28;19913;-59
2021/05/01 06:22:12;;;;;;;;;;;;;;;;;;4955791;28;19910;-59
2021/05/01 06:24:37;;;;;;;;;;;;;;;;;;4972711;28;19953;-59
2021/05/01 06:27:02;;;;;;;;;;;;;;;;;;4973287;28;19917;-59
2021/05/01 06:29:28;;;;;;;;;;;;;;;;;;4971766;28;19914;-58
2021/05/01 06:31:53;;;;;;;;;;;;;;;;;;4955730;28;19917;-58
2021/05/01 06:34:18;;;;;;;;;;;;;;;;;;4971614;28;20301;-59
2021/05/01 06:36:43;;;;;;;;;;;;;;;;;;4975143;28;19918;-58
2021/05/01 06:39:11;;;;;;;;;;;;;;;;;;4975431;28;19960;-59
2021/05/01 06:41:43;;;;;;;;;;;;;;;;;;4976499;28;20388;-58
2021/05/01 06:44:10;;;;;;;;;;;;;;;;;;4975583;28;19990;-59
2021/05/01 06:46:35;;;;;;;;;;;;;;;;;;4975417;28;19910;-58
2021/05/01 06:49:01;;;;;;;;;;;;;;;;;;4976405;28;19969;-60
2021/05/01 06:51:26;;;;;;;;;;;;;;;;;;4976448;28;20335;-60
2021/05/01 06:53:51;;;;;;;;;;;;;;;;;;4975838;28;20021;-58
2021/05/01 06:56:17;;;;;;;;;;;;;;;;;;4976337;28;19921;-59
2021/05/01 06:58:42;;;;;;;;;;;;;;;;;;4974812;28;19914;-59
2021/05/01 07:01:07;;;;;;;;;;;;;;;;;;4976337;28;19996;-58
2021/05/01 07:03:33;;;;;;;;;;;;;;;;;;4975913;28;20010;-58
2021/05/01 07:05:58;;;;;;;;;;;;;;;;;;4976115;28;19917;-58
2021/05/01 07:08:25;;;;;;;;;;;;;;;;;;4975083;28;20380;-58
2021/05/01 07:10:50;;;;;;;;;;;;;;;;;;4974124;28;19917;-58
2021/05/01 07:13:16;;;;;;;;;;;;;;;;;;4974324;28;19910;-59
2021/05/01 07:15:41;;;;;;;;;;;;;;;;;;4973851;28;20366;-58
2021/05/01 07:18:06;;;;;;;;;;;;;;;;;;4974501;28;19918;-59
2021/05/01 07:20:32;;;;;;;;;;;;;;;;;;4975427;28;19907;-59
2021/05/01 07:22:57;;;;;;;;;;;;;;;;;;4974783;28;19917;-58
2021/05/01 07:25:22;;;;;;;;;;;;;;;;;;4957371;28;19936;-60
2021/05/01 07:27:48;;;;;;;;;;;;;;;;;;4974721;28;19914;-59
2021/05/01 07:30:13;;;;;;;;;;;;;;;;;;4975257;28;19917;-58
2021/05/01 07:32:38;;;;;;;;;;;;;;;;;;4974546;28;19910;-58
2021/05/01 07:35:04;;;;;;;;;;;;;;;;;;4975197;28;19910;-59
2021/05/01 07:37:29;;;;;;;;;;;;;;;;;;4974748;28;19997;-60
2021/05/01 07:39:54;;;;;;;;;;;;;;;;;;4974425;28;19961;-59
2021/05/01 07:42:21;;;;;;;;;;;;;;;;;;4975124;28;19910;-59
2021/05/01 07:44:46;;;;;;;;;;;;;;;;;;4974440;28;19933;-59
2021/05/01 07:47:11;;;;;;;;;;;;;;;;;;4954175;28;20363;-59
2021/05/01 07:49:36;;;;;;;;;;;;;;;;;;4957395;28;19914;-59
2021/05/01 07:52:02;;;;;;;;;;;;;;;;;;4974671;28;20389;-59
2021/05/01 07:54:27;;;;;;;;;;;;;;;;;;4973132;28;19914;-59
2021/05/01 07:56:52;;;;;;;;;;;;;;;;;;4974701;28;19945;-60
2021/05/01 07:59:17;;;;;;;;;;;;;;;;;;4974963;28;19918;-59
2021/05/01 08:01:43;;;;;;;;;;;;;;;;;;4974528;28;20409;-59
2021/05/01 08:04:08;;;;;;;;;;;;;;;;;;4972289;28;19917;-60
2021/05/01 08:06:33;;;;;;;;;;;;;;;;;;4957584;28;20354;-59
2021/05/01 08:08:59;;;;;;;;;;;;;;;;;;4972768;28;20401;-59
2021/05/01 08:11:24;;;;;;;;;;;;;;;;;;4973321;28;19988;-59
2021/05/01 08:13:49;;;;;;;;;;;;;;;;;;4973033;28;20335;-59
2021/05/01 08:16:14;;;;;;;;;;;;;;;;;;4973275;28;19921;-60
2021/05/01 08:18:40;;;;;;;;;;;;;;;;;;4973447;28;19932;-59
2021/05/01 08:21:05;;;;;;;;;;;;;;;;;;4973661;28;20270;-61
2021/05/01 08:23:33;;;;;;;;;;;;;;;;;;4973867;28;19914;-59
2021/05/01 08:25:58;;;;;;;;;;;;;;;;;;4973076;28;20489;-59
2021/05/01 08:28:23;;;;;;;;;;;;;;;;;;4972992;28;20477;-59
2021/05/01 08:30:48;;;;;;;;;;;;;;;;;;4956644;28;20394;-59
2021/05/01 08:33:13;;;;;;;;;;;;;;;;;;4972721;28;19922;-58
2021/05/01 08:35:39;;;;;;;;;;;;;;;;;;4955916;28;19915;-59
2021/05/01 08:38:04;;;;;;;;;;;;;;;;;;4956642;29;19915;-59
2021/05/01 08:40:30;;;;;;;;;;;;;;;;;;4967868;29;19938;-59
2021/05/01 08:42:56;;;;;;;;;;;;;;;;;;4966586;28;19926;-59
2021/05/01 08:45:24;;;;;;;;;;;;;;;;;;4958263;28;19996;-58
2021/05/01 08:47:49;;;;;;;;;;;;;;;;;;4955961;28;19906;-58
2021/05/01 08:50:15;;;;;;;;;;;;;;;;;;4964440;28;19957;-59
2021/05/01 08:52:40;;;;;;;;;;;;;;;;;;4966218;28;19917;-59
2021/05/01 08:55:05;;;;;;;;;;;;;;;;;;4958030;29;20362;-59
2021/05/01 08:57:30;;;;;;;;;;;;;;;;;;4956620;28;19918;-59
2021/05/01 08:59:56;;;;;;;;;;;;;;;;;;4955503;28;19910;-59
2021/05/01 09:02:21;;;;;;;;;;;;;;;;;;4955705;29;19907;-59
2021/05/01 09:04:46;;;;;;;;;;;;;;;;;;4954706;28;19911;-58
2021/05/01 09:07:11;;;;;;;;;;;;;;;;;;4953808;28;19966;-59
2021/05/01 09:09:39;;;;;;;;;;;;;;;;;;4971438;28;19945;-59
2021/05/01 09:12:04;;;;;;;;;;;;;;;;;;4956169;28;19921;-58
2021/05/01 09:14:30;;;;;;;;;;;;;;;;;;4973017;28;19909;-59
2021/05/01 09:16:55;;;;;;;;;;;;;;;;;;4972639;28;19961;-58
2021/05/01 09:19:20;;;;;;;;;;;;;;;;;;4973245;28;20344;-59
2021/05/01 09:21:46;;;;;;;;;;;;;;;;;;4973660;28;19918;-59
2021/05/01 09:24:11;;;;;;;;;;;;;;;;;;4970655;28;19917;-58
2021/05/01 09:26:37;;;;;;;;;;;;;;;;;;4972557;28;19906;-58
2021/05/01 09:29:02;;;;;;;;;;;;;;;;;;4971475;28;19961;-59
2021/05/01 09:31:27;;;;;;;;;;;;;;;;;;4972735;28;19914;-58
2021/05/01 09:33:52;;;;;;;;;;;;;;;;;;4972951;28;19918;-58
2021/05/01 09:36:18;;;;;;;;;;;;;;;;;;4973965;28;19922;-59
2021/05/01 09:38:43;;;;;;;;;;;;;;;;;;4972726;28;19921;-58
2021/05/01 09:41:08;;;;;;;;;;;;;;;;;;4973969;28;19926;-58
2021/05/01 09:43:34;;;;;;;;;;;;;;;;;;4973412;28;20259;-59
2021/05/01 09:45:59;;;;;;;;;;;;;;;;;;4974031;28;20368;-58
2021/05/01 09:48:24;;;;;;;;;;;;;;;;;;4973475;28;20000;-58
2021/05/01 09:50:49;;;;;;;;;;;;;;;;;;4976391;28;19921;-59
2021/05/01 09:53:17;;;;;;;;;;;;;;;;;;4977761;28;19910;-60
2021/05/01 09:55:42;;;;;;;;;;;;;;;;;;4974294;28;19992;-59
2021/05/01 09:58:07;;;;;;;;;;;;;;;;;;4972057;28;19945;-60
2021/05/01 10:00:32;;;;;;;;;;;;;;;;;;4973780;28;19910;-59
2021/05/01 10:02:57;;;;;;;;;;;;;;;;;;4971805;28;19925;-58
2021/05/01 10:05:23;;;;;;;;;;;;;;;;;;4973554;28;20299;-59
2021/05/01 10:07:50;;;;;;;;;;;;;;;;;;4973218;28;20373;-59
2021/05/01 10:10:15;;;;;;;;;;;;;;;;;;4974087;28;19910;-59
2021/05/01 10:12:41;;;;;;;;;;;;;;;;;;4977151;28;19968;-58
2021/05/01 10:15:06;;;;;;;;;;;;;;;;;;4975483;28;20366;-59
2021/05/01 10:17:31;;;;;;;;;;;;;;;;;;4959766;28;19918;-58
2021/05/01 10:19:57;;;;;;;;;;;;;;;;;;4977437;28;19914;-59
2021/05/01 10:22:22;;;;;;;;;;;;;;;;;;4977281;28;19956;-58
2021/05/01 10:24:47;;;;;;;;;;;;;;;;;;4977234;28;19933;-59
2021/05/01 10:27:12;;;;;;;;;;;;;;;;;;4977187;28;19910;-59
2021/05/01 10:29:40;;;;;;;;;;;;;;;;;;4977415;28;20358;-59
2021/05/01 10:32:06;;;;;;;;;;;;;;;;;;4976655;28;19972;-59
2021/05/01 10:34:34;;;;;;;;;;;;;;;;;;4976760;28;19966;-59
2021/05/01 10:37:00;;;;;;;;;;;;;;;;;;4976261;28;19922;-59
2021/05/01 10:39:25;;;;;;;;;;;;;;;;;;4976176;28;19918;-59
2021/05/01 10:41:50;;;;;;;;;;;;;;;;;;4976091;28;20004;-57
2021/05/01 10:44:16;;;;;;;;;;;;;;;;;;4977277;28;19933;-58
2021/05/01 10:46:42;;;;;;;;;;;;;;;;;;4975656;28;19964;-60
2021/05/01 10:49:07;;;;;;;;;;;;;;;;;;4976386;28;19917;-58
2021/05/01 10:51:32;;;;;;;;;;;;;;;;;;4976969;28;19910;-59
2021/05/01 10:53:58;;;;;;;;;;;;;;;;;;4976764;28;19913;-59
2021/05/01 10:56:23;;;;;;;;;;;;;;;;;;4976752;28;20325;-59
2021/05/01 10:58:50;;;;;;;;;;;;;;;;;;4976354;28;20369;-58
2021/05/01 11:01:15;;;;;;;;;;;;;;;;;;4976680;28;20370;-58
2021/05/01 11:03:40;;;;;;;;;;;;;;;;;;4976070;28;19917;-58
2021/05/01 11:06:05;;;;;;;;;;;;;;;;;;4976523;28;20365;-58
2021/05/01 11:08:30;;;;;;;;;;;;;;;;;;4977011;28;19910;-58
2021/05/01 11:10:56;;;;;;;;;;;;;;;;;;4976474;28;19960;-58
2021/05/01 11:13:21;;;;;;;;;;;;;;;;;;4976085;28;19925;-58
2021/05/01 11:15:50;;;;;;;;;;;;;;;;;;4976513;28;19937;-59
2021/05/01 11:18:15;;;;;;;;;;;;;;;;;;4980193;28;19989;-59
2021/05/01 11:20:40;;;;;;;;;;;;;;;;;;4978560;28;20426;-59
2021/05/01 11:23:06;;;;;;;;;;;;;;;;;;4976333;28;20405;-59
2021/05/01 11:25:31;;;;;;;;;;;;;;;;;;4976497;28;20254;-59
2021/05/01 11:27:56;;;;;;;;;;;;;;;;;;4975631;28;19910;-59
2021/05/01 11:30:21;;;;;;;;;;;;;;;;;;4975359;28;19961;-58
2021/05/01 11:32:46;;;;;;;;;;;;;;;;;;4975559;28;20413;-59
2021/05/01 11:35:12;;;;;;;;;;;;;;;;;;4975991;28;19993;-59
2021/05/01 11:37:37;;;;;;;;;;;;;;;;;;4959297;28;19918;-59
2021/05/01 11:40:02;;;;;;;;;;;;;;;;;;4976000;28;19909;-58
2021/05/01 11:42:27;;;;;;;;;;;;;;;;;;4975913;28;19913;-59
2021/05/01 11:44:53;;;;;;;;;;;;;;;;;;4976013;28;19910;-59
2021/05/01 11:47:18;;;;;;;;;;;;;;;;;;4973808;28;19910;-59
2021/05/01 11:49:43;;;;;;;;;;;;;;;;;;4975842;28;19917;-59
2021/05/01 11:52:09;;;;;;;;;;;;;;;;;;4974460;28;19920;-59
2021/05/01 11:54:34;;;;;;;;;;;;;;;;;;4975951;28;20012;-59
2021/05/01 11:57:00;;;;;;;;;;;;;;;;;;4975358;28;19914;-59
2021/05/01 11:59:25;;;;;;;;;;;;;;;;;;4976014;28;19957;-57
2021/05/01 12:01:50;;;;;;;;;;;;;;;;;;4973944;28;19914;-59
2021/05/01 12:04:15;;;;;;;;;;;;;;;;;;4975029;28;20086;-58
2021/05/01 12:06:41;;;;;;;;;;;;;;;;;;4975140;28;19914;-58
2021/05/01 12:09:06;;;;;;;;;;;;;;;;;;4974907;28;19953;-59
2021/05/01 12:11:31;;;;;;;;;;;;;;;;;;4974665;28;19975;-61
2021/05/01 12:13:58;;;;;;;;;;;;;;;;;;4975381;28;19921;-58
2021/05/01 12:16:24;;;;;;;;;;;;;;;;;;4974872;28;19918;-59
2021/05/01 12:18:49;;;;;;;;;;;;;;;;;;4974871;28;20286;-59
2021/05/01 12:21:14;;;;;;;;;;;;;;;;;;4974811;28;20263;-59
2021/05/01 12:23:39;;;;;;;;;;;;;;;;;;4975277;28;19926;-59
2021/05/01 12:26:05;;;;;;;;;;;;;;;;;;4974506;28;20273;-59
2021/05/01 12:28:30;;;;;;;;;;;;;;;;;;4974865;28;20008;-62
2021/05/01 12:30:55;;;;;;;;;;;;;;;;;;4974579;28;19969;-58
2021/05/01 12:33:21;;;;;;;;;;;;;;;;;;4972487;28;19932;-58
2021/05/01 12:35:46;;;;;;;;;;;;;;;;;;4973774;28;19913;-59
2021/05/01 12:38:11;;;;;;;;;;;;;;;;;;4974038;28;20247;-58
2021/05/01 12:40:36;;;;;;;;;;;;;;;;;;4973881;28;19921;-58
2021/05/01 12:43:01;;;;;;;;;;;;;;;;;;4973489;28;20362;-59
2021/05/01 12:45:27;;;;;;;;;;;;;;;;;;4973958;28;20423;-59
2021/05/01 12:47:52;;;;;;;;;;;;;;;;;;4973306;28;20362;-58
2021/05/01 12:50:19;;;;;;;;;;;;;;;;;;4974010;28;20370;-58
2021/05/01 12:52:47;;;;;;;;;;;;;;;;;;4974557;28;19910;-59
2021/05/01 12:55:12;;;;;;;;;;;;;;;;;;4982197;28;19917;-58
2021/05/01 12:57:39;;;;;;;;;;;;;;;;;;4986642;28;19961;-59
2021/05/01 13:00:05;;;;;;;;;;;;;;;;;;4978929;28;19964;-58
2021/05/01 13:02:30;;;;;;;;;;;;;;;;;;4975338;28;20314;-59
2021/05/01 13:04:57;;;;;;;;;;;;;;;;;;4977449;28;20366;-60
2021/05/01 13:07:23;;;;;;;;;;;;;;;;;;4980646;28;19988;-59
2021/05/01 13:09:49;;;;;;;;;;;;;;;;;;4975843;28;19910;-59
2021/05/01 13:12:18;;;;;;;;;;;;;;;;;;4973362;28;19914;-59
2021/05/01 13:14:43;;;;;;;;;;;;;;;;;;4973887;28;20293;-59
2021/05/01 13:17:08;;;;;;;;;;;;;;;;;;4971763;28;19914;-59
2021/05/01 13:19:34;;;;;;;;;;;;;;;;;;4973990;28;20361;-58
2021/05/01 13:22:00;;;;;;;;;;;;;;;;;;4973682;28;19917;-58
2021/05/01 13:24:25;;;;;;;;;;;;;;;;;;4973699;28;19910;-58
2021/05/01 13:26:51;;;;;;;;;;;;;;;;;;4973358;28;19929;-58
2021/05/01 13:29:16;;;;;;;;;;;;;;;;;;4973091;28;20362;-57
2021/05/01 13:31:41;;;;;;;;;;;;;;;;;;4972775;28;20005;-58
2021/05/01 13:34:06;;;;;;;;;;;;;;;;;;4951931;28;608909;-59
2021/05/01 13:36:31;;;;;;;;;;;;;;;;;;4972809;28;20357;-58
2021/05/01 13:38:57;;;;;;;;;;;;;;;;;;4973087;28;19918;-59
2021/05/01 13:41:22;;;;;;;;;;;;;;;;;;4973392;28;19957;-58
2021/05/01 13:43:48;;;;;;;;;;;;;;;;;;4972797;28;20286;-59
2021/05/01 13:46:17;;;;;;;;;;;;;;;;;;4972336;28;19910;-59
2021/05/01 13:48:43;;;;;;;;;;;;;;;;;;4973135;28;19910;-59
2021/05/01 13:51:10;;;;;;;;;;;;;;;;;;4973724;28;19906;-57
2021/05/01 13:53:35;;;;;;;;;;;;;;;;;;4974327;28;19911;-59
2021/05/01 13:56:00;;;;;;;;;;;;;;;;;;4973232;28;19914;-59
2021/05/01 13:58:27;;;;;;;;;;;;;;;;;;4973336;28;20013;-59
2021/05/01 14:00:52;;;;;;;;;;;;;;;;;;4972554;28;19910;-59
2021/05/01 14:03:18;;;;;;;;;;;;;;;;;;4973508;28;20358;-59
2021/05/01 14:05:43;;;;;;;;;;;;;;;;;;4973768;28;20365;-59
2021/05/01 14:08:08;;;;;;;;;;;;;;;;;;4973402;28;19910;-59
2021/05/01 14:10:34;;;;;;;;;;;;;;;;;;4973006;28;19910;-60
2021/05/01 14:12:59;;;;;;;;;;;;;;;;;;4974005;28;19916;-60
2021/05/01 14:15:24;;;;;;;;;;;;;;;;;;4971353;28;20394;-59
2021/05/01 14:17:50;;;;;;;;;;;;;;;;;;4973946;28;20381;-58
2021/05/01 14:20:15;;;;;;;;;;;;;;;;;;4973672;28;19940;-58
2021/05/01 14:22:40;;;;;;;;;;;;;;;;;;4973314;28;19910;-58
2021/05/01 14:25:05;;;;;;;;;;;;;;;;;;4969321;28;19953;-58
2021/05/01 14:27:31;;;;;;;;;;;;;;;;;;4973116;28;20285;-59
2021/05/01 14:29:56;;;;;;;;;;;;;;;;;;4981404;28;19918;-59
2021/05/01 14:32:22;;;;;;;;;;;;;;;;;;4971861;28;20397;-59
2021/05/01 14:34:47;;;;;;;;;;;;;;;;;;4970926;28;19924;-59
2021/05/01 14:37:12;;;;;;;;;;;;;;;;;;4974764;28;20290;-59
2021/05/01 14:39:37;;;;;;;;;;;;;;;;;;4973833;28;21412;-58
2021/05/01 14:42:03;;;;;;;;;;;;;;;;;;4972204;28;20346;-59
2021/05/01 14:44:28;;;;;;;;;;;;;;;;;;4969545;28;19925;-60
2021/05/01 14:46:53;;;;;;;;;;;;;;;;;;4976982;28;19909;-59
2021/05/01 14:49:20;;;;;;;;;;;;;;;;;;4976358;28;20362;-59
2021/05/01 14:51:45;;;;;;;;;;;;;;;;;;4973685;28;19961;-58
2021/05/01 14:54:11;;;;;;;;;;;;;;;;;;4968712;28;19929;-58
2021/05/01 14:56:36;;;;;;;;;;;;;;;;;;4963749;28;19968;-55
2021/05/01 14:59:01;;;;;;;;;;;;;;;;;;4957403;29;19930;-56
2021/05/01 15:01:26;;;;;;;;;;;;;;;;;;4957028;29;20006;-58
2021/05/01 15:03:52;;;;;;;;;;;;;;;;;;4958728;28;19916;-58
2021/05/01 15:06:17;;;;;;;;;;;;;;;;;;4975710;28;20424;-58
2021/05/01 15:08:42;;;;;;;;;;;;;;;;;;4974330;28;19906;-59
2021/05/01 15:11:07;;;;;;;;;;;;;;;;;;4974554;28;19914;-59
2021/05/01 15:13:33;;;;;;;;;;;;;;;;;;4975769;28;19957;-58
2021/05/01 15:15:58;;;;;;;;;;;;;;;;;;4975748;28;19972;-57
2021/05/01 15:18:23;;;;;;;;;;;;;;;;;;4974883;28;19949;-59
2021/05/01 15:20:49;;;;;;;;;;;;;;;;;;4974775;28;19972;-58
2021/05/01 15:23:14;;;;;;;;;;;;;;;;;;4975366;28;19918;-59
2021/05/01 15:25:39;;;;;;;;;;;;;;;;;;4973756;28;19917;-58
2021/05/01 15:28:04;;;;;;;;;;;;;;;;;;4958836;28;19910;-59
2021/05/01 15:30:35;;;;;;;;;;;;;;;;;;4975950;28;19957;-59
2021/05/01 15:33:01;;;;;;;;;;;;;;;;;;4964475;28;19910;-58
2021/05/01 15:35:26;;;;;;;;;;;;;;;;;;4956486;28;19922;-59
2021/05/01 15:37:53;;;;;;;;;;;;;;;;;;4956163;28;19910;-59
2021/05/01 15:40:18;;;;;;;;;;;;;;;;;;4955093;28;20364;-59
2021/05/01 15:42:44;;;;;;;;;;;;;;;;;;4955189;29;19922;-59
2021/05/01 15:45:09;;;;;;;;;;;;;;;;;;4956486;28;19958;-58
2021/05/01 15:47:34;;;;;;;;;;;;;;;;;;4954229;28;19910;-58
2021/05/01 15:50:00;;;;;;;;;;;;;;;;;;4956143;29;20005;-60
2021/05/01 15:52:25;;;;;;;;;;;;;;;;;;4955355;29;19907;-58
2021/05/01 15:54:50;;;;;;;;;;;;;;;;;;4956883;28;19910;-58
2021/05/01 15:57:15;;;;;;;;;;;;;;;;;;4956316;28;20025;-58
2021/05/01 15:59:40;;;;;;;;;;;;;;;;;;4956019;28;19917;-59
2021/05/01 16:02:06;;;;;;;;;;;;;;;;;;4955729;29;19926;-59
2021/05/01 16:04:31;;;;;;;;;;;;;;;;;;4954892;29;19925;-59
2021/05/01 16:06:56;;;;;;;;;;;;;;;;;;4955845;28;19926;-59
2021/05/01 16:09:22;;;;;;;;;;;;;;;;;;4954592;28;19906;-58
2021/05/01 16:11:47;;;;;;;;;;;;;;;;;;4955874;29;19930;-58
2021/05/01 16:14:12;;;;;;;;;;;;;;;;;;4955260;28;19981;-58
2021/05/01 16:16:37;;;;;;;;;;;;;;;;;;4954383;29;19922;-59
2021/05/01 16:19:02;;;;;;;;;;;;;;;;;;4955986;29;19938;-58
2021/05/01 16:21:28;;;;;;;;;;;;;;;;;;4955257;29;20263;-58
2021/05/01 16:23:53;;;;;;;;;;;;;;;;;;4956162;29;19954;-59
2021/05/01 16:26:18;;;;;;;;;;;;;;;;;;4955889;29;19954;-59
2021/05/01 16:28:43;;;;;;;;;;;;;;;;;;4955468;29;20469;-53
2021/05/01 16:31:09;;;;;;;;;;;;;;;;;;4955847;29;19933;-53
2021/05/01 16:33:34;;;;;;;;;;;;;;;;;;4955377;29;20282;-57